Time;durP1;ratioP1;P1;durP2;ratioP2;P2;SDS_P1;SDS_P2;PMS_P1;PMS_P2;Temp;Humidity;BMP_temperature;BMP_pressure;BME280_temperature;BME280_humidity;BME280_pressure;Samples;Min_cycle;Max_cycle;Signal;HPM_P1;HPM_P2
2022/12/12 06:24:31;;;;;;;27.20;10.73;;;-3.60;99.90;;;;;;5458905;24;20277;-79
2022/12/12 06:26:57;;;;;;;21.75;10.88;;;-3.60;99.90;;;;;;4845753;29;20404;-78
2022/12/12 06:29:24;;;;;;;24.73;11.18;;;-3.60;99.90;;;;;;4843447;29;20148;-81
2022/12/12 06:31:51;;;;;;;29.55;11.93;;;-3.50;99.90;;;;;;4844425;29;20149;-80
2022/12/12 06:34:17;;;;;;;26.23;11.30;;;-3.50;99.90;;;;;;4844564;29;20152;-79
2022/12/12 06:36:44;;;;;;;25.48;12.05;;;-3.50;99.90;;;;;;4846569;29;20615;-80
2022/12/12 06:39:11;;;;;;;27.48;12.45;;;-3.40;99.90;;;;;;4825977;29;20086;-79
2022/12/12 06:41:38;;;;;;;30.35;12.25;;;-3.50;99.90;;;;;;4826771;29;20055;-79
2022/12/12 06:44:05;;;;;;;29.90;12.95;;;-3.60;99.90;;;;;;4829383;29;20158;-80
2022/12/12 06:46:32;;;;;;;30.10;12.48;;;-3.50;99.90;;;;;;4837580;29;20538;-82
2022/12/12 06:48:59;;;;;;;29.52;13.25;;;-3.50;99.90;;;;;;4837713;29;20404;-79
2022/12/12 06:51:32;;;;;;;24.42;11.30;;;-3.50;99.90;;;;;;4833703;29;20487;-79
2022/12/12 06:53:59;;;;;;;30.48;13.13;;;-3.50;99.90;;;;;;4837807;29;20064;-79
2022/12/12 06:56:26;;;;;;;27.77;12.85;;;-3.50;99.90;;;;;;4841482;29;20058;-80
2022/12/12 06:58:54;;;;;;;30.02;11.80;;;-3.50;99.90;;;;;;4826207;29;20141;-80
2022/12/12 07:01:22;;;;;;;33.47;13.50;;;-3.50;99.90;;;;;;4839400;29;20086;-80
2022/12/12 07:03:50;;;;;;;28.63;12.43;;;-3.50;99.90;;;;;;4835211;29;20115;-80
2022/12/12 07:06:19;;;;;;;33.80;14.43;;;-3.50;99.90;;;;;;4827977;29;20083;-80
2022/12/12 07:08:47;;;;;;;30.85;13.18;;;-3.30;99.90;;;;;;4829777;29;20073;-81
2022/12/12 07:11:17;;;;;;;34.05;14.25;;;-3.30;99.90;;;;;;4847708;29;20555;-81
2022/12/12 07:13:44;;;;;;;32.15;13.05;;;-3.20;99.90;;;;;;4834595;29;20054;-81
2022/12/12 07:16:11;;;;;;;32.67;14.10;;;-3.10;99.90;;;;;;4826783;29;20054;-81
2022/12/12 07:18:38;;;;;;;34.22;13.07;;;-3.10;99.90;;;;;;4827106;29;20050;-81
2022/12/12 07:21:07;;;;;;;31.10;13.45;;;-3.10;99.90;;;;;;4848325;29;20088;-81
2022/12/12 07:23:34;;;;;;;30.15;12.50;;;-3.00;99.90;;;;;;4854866;29;20098;-81
2022/12/12 07:26:05;;;;;;;30.88;13.75;;;-3.00;99.90;;;;;;4834006;29;20050;-81
2022/12/12 07:28:32;;;;;;;29.13;12.90;;;-3.00;99.90;;;;;;4845611;29;20107;-80
2022/12/12 07:31:03;;;;;;;29.65;12.05;;;-3.00;99.90;;;;;;4846289;29;20140;-81
2022/12/12 07:33:30;;;;;;;32.38;14.75;;;-3.00;99.90;;;;;;4834250;29;20461;-81
2022/12/12 07:36:10;;;;;;;32.65;13.40;;;-3.00;99.90;;;;;;4834158;29;20145;-81
2022/12/12 07:38:37;;;;;;;34.72;13.77;;;-3.00;99.90;;;;;;4836680;29;20076;-81
2022/12/12 07:41:06;;;;;;;28.33;12.55;;;-2.90;99.90;;;;;;4836984;29;20046;-81
2022/12/12 07:43:40;;;;;;;30.58;12.80;;;-3.00;99.90;;;;;;4832712;29;20539;-81
2022/12/12 07:46:14;;;;;;;29.75;12.77;;;-3.00;99.90;;;;;;4842310;29;20132;-80
2022/12/12 07:48:41;;;;;;;24.35;11.95;;;-3.10;99.90;;;;;;4832659;29;20054;-80
2022/12/12 07:51:08;;;;;;;29.70;12.68;;;-3.10;99.90;;;;;;4838647;29;20129;-80
2022/12/12 07:53:35;;;;;;;24.77;12.50;;;-3.10;99.90;;;;;;4833919;29;20049;-81
2022/12/12 07:56:09;;;;;;;23.70;12.27;;;-3.00;99.90;;;;;;4836655;29;20524;-80
2022/12/12 07:58:36;;;;;;;26.42;12.60;;;-3.00;99.90;;;;;;4836748;29;20050;-80
2022/12/12 08:01:18;;;;;;;25.42;12.02;;;-2.90;99.90;;;;;;4833628;29;20119;-81
2022/12/12 08:03:46;;;;;;;29.90;14.32;;;-2.80;99.90;;;;;;4831400;29;20046;-79
2022/12/12 08:06:15;;;;;;;26.45;11.88;;;-2.90;99.90;;;;;;4833904;29;20042;-81
2022/12/12 08:08:42;;;;;;;28.87;13.33;;;-2.90;99.90;;;;;;4838690;29;20064;-81
2022/12/12 08:11:12;;;;;;;26.05;13.00;;;-3.00;99.90;;;;;;4841893;29;20061;-81
2022/12/12 08:13:39;;;;;;;28.15;12.40;;;-2.90;99.90;;;;;;4837651;29;20533;-81
2022/12/12 08:16:12;;;;;;;26.30;12.75;;;-2.90;99.90;;;;;;4838282;29;20054;-81
2022/12/12 08:18:39;;;;;;;26.50;12.07;;;-2.90;99.90;;;;;;4836630;29;20054;-81
2022/12/12 08:21:07;;;;;;;27.95;11.98;;;-2.80;99.90;;;;;;4838816;29;20053;-81
2022/12/12 08:23:34;;;;;;;29.77;13.18;;;-2.80;99.90;;;;;;4836765;29;20056;-82
2022/12/12 08:26:07;;;;;;;25.65;11.55;;;-2.70;99.90;;;;;;4835675;29;20050;-82
2022/12/12 08:28:34;;;;;;;26.10;10.98;;;-2.70;99.90;;;;;;4830786;29;20527;-81
2022/12/12 08:31:01;;;;;;;26.92;12.13;;;-2.70;99.90;;;;;;4835325;29;20050;-81
2022/12/12 08:33:28;;;;;;;26.40;12.00;;;-2.60;99.90;;;;;;4836884;29;20065;-81
2022/12/12 08:35:55;;;;;;;21.55;11.02;;;-2.60;99.90;;;;;;4833880;29;20066;-82
2022/12/12 08:38:21;;;;;;;22.45;10.80;;;-2.60;99.90;;;;;;4836475;29;20053;-82
2022/12/12 08:40:48;;;;;;;24.65;11.63;;;-2.60;99.90;;;;;;4839080;29;20057;-81
2022/12/12 08:43:15;;;;;;;28.13;13.43;;;-2.60;99.90;;;;;;4836996;29;20065;-82
2022/12/12 08:45:42;;;;;;;32.60;14.48;;;-2.60;99.90;;;;;;4832138;29;20364;-82
2022/12/12 08:48:10;;;;;;;29.50;13.80;;;-2.50;99.90;;;;;;4835263;29;20061;-82
2022/12/12 08:50:40;;;;;;;28.67;13.32;;;-2.50;99.90;;;;;;4836116;29;20086;-82
2022/12/12 08:53:06;;;;;;;28.15;11.90;;;-2.50;99.90;;;;;;4840757;29;20476;-82
2022/12/12 08:55:33;;;;;;;34.45;15.93;;;-2.50;99.90;;;;;;4839569;29;20482;-81
2022/12/12 08:58:00;;;;;;;31.63;15.50;;;-2.50;99.90;;;;;;4834341;29;20064;-82
2022/12/12 09:00:26;;;;;;;36.08;13.68;;;-2.50;99.90;;;;;;4823753;29;20398;-82
2022/12/12 09:02:53;;;;;;;32.42;13.00;;;-2.50;99.90;;;;;;4824483;29;20054;-82
2022/12/12 09:05:20;;;;;;;32.25;14.93;;;-2.50;99.90;;;;;;4827091;29;20054;-82
2022/12/12 09:07:46;;;;;;;29.15;13.25;;;-2.50;99.90;;;;;;4840042;29;20412;-82
2022/12/12 09:10:13;;;;;;;32.50;14.73;;;-2.40;99.90;;;;;;4844186;29;20066;-82
2022/12/12 09:12:40;;;;;;;29.65;14.60;;;-2.40;99.90;;;;;;4841328;29;20058;-82
2022/12/12 09:15:08;;;;;;;34.10;14.48;;;-2.40;99.90;;;;;;4839466;29;20561;-83
2022/12/12 09:17:35;;;;;;;33.17;16.35;;;-2.40;99.90;;;;;;4840274;29;20054;-82
2022/12/12 09:20:02;;;;;;;28.88;14.32;;;-2.40;99.90;;;;;;4825019;29;20510;-82
2022/12/12 09:22:29;;;;;;;27.73;13.70;;;-2.40;99.90;;;;;;4829960;29;20053;-83
2022/12/12 09:24:56;;;;;;;26.38;13.15;;;-2.30;99.90;;;;;;4838864;29;20190;-82
2022/12/12 09:27:22;;;;;;;28.08;12.40;;;-2.30;99.90;;;;;;4849834;29;20056;-82
2022/12/12 09:29:49;;;;;;;30.27;13.68;;;-2.30;99.90;;;;;;4849465;29;20065;-83
2022/12/12 09:32:17;;;;;;;34.92;15.27;;;-2.20;99.90;;;;;;4849406;29;20064;-83
2022/12/12 09:34:50;;;;;;;27.58;13.15;;;-2.20;99.90;;;;;;4844928;29;20058;-83
2022/12/12 09:37:16;;;;;;;30.42;14.70;;;-2.00;99.90;;;;;;4841290;29;20050;-83
2022/12/12 09:39:43;;;;;;;29.27;14.43;;;-2.00;99.90;;;;;;4839725;29;20050;-83
2022/12/12 09:42:31;;;;;;;27.92;13.07;;;-2.00;99.90;;;;;;4843532;29;20058;-82
2022/12/12 09:45:02;;;;;;;29.10;12.82;;;-1.90;99.90;;;;;;4836270;29;20061;-83
2022/12/12 09:47:36;;;;;;;25.10;13.30;;;-1.80;99.90;;;;;;4840785;29;20046;-82
2022/12/12 09:50:32;;;;;;;26.45;12.30;;;-1.70;99.90;;;;;;4831327;29;20103;-82
2022/12/12 09:53:02;;;;;;;31.92;12.85;;;-1.70;99.90;;;;;;4841025;29;20053;-82
2022/12/12 09:55:51;;;;;;;25.85;12.40;;;-1.60;99.90;;;;;;4843457;29;20058;-82
2022/12/12 09:58:40;;;;;;;27.48;12.90;;;-1.70;99.90;;;;;;4842588;29;20057;-82
2022/12/12 10:01:31;;;;;;;28.42;13.90;;;-1.80;99.90;;;;;;4839287;29;20431;-82
2022/12/12 10:04:19;;;;;;;23.55;11.88;;;-1.70;99.90;;;;;;4840045;29;20050;-82
2022/12/12 10:07:14;;;;;;;25.08;12.32;;;-1.60;99.90;;;;;;4836943;29;20050;-82
2022/12/12 10:10:00;;;;;;;23.45;11.32;;;-1.60;99.90;;;;;;4840155;29;20144;-82
2022/12/12 10:12:28;;;;;;;24.50;12.43;;;-1.50;99.90;;;;;;4829007;29;20077;-82
2022/12/12 10:15:03;;;;;;;22.50;11.00;;;-1.50;99.90;;;;;;4835535;29;20516;-83
2022/12/12 10:17:32;;;;;;;26.08;11.93;;;-1.50;99.90;;;;;;4844327;29;20061;-82
2022/12/12 10:20:10;;;;;;;25.95;12.00;;;-1.60;99.90;;;;;;4840745;29;20065;-83
2022/12/12 10:23:00;;;;;;;27.67;13.13;;;-1.60;99.90;;;;;;4833820;29;20133;-83
2022/12/12 10:25:56;;;;;;;20.85;10.82;;;-1.50;99.90;;;;;;4833738;29;20150;-83
2022/12/12 10:28:26;;;;;;;25.75;12.95;;;-1.50;99.90;;;;;;4838881;29;20057;-83
2022/12/12 10:31:24;;;;;;;25.98;12.95;;;-1.50;99.90;;;;;;4836372;29;20062;-83
2022/12/12 10:34:25;;;;;;;26.38;12.07;;;-1.40;99.90;;;;;;4841445;29;20519;-82
2022/12/12 10:36:51;;;;;;;;;;;-1.40;99.90;;;;;;4834514;29;20054;-83
2022/12/12 10:39:49;;;;;;;22.38;11.07;;;-1.40;99.90;;;;;;4841043;29;19924;-82
2022/12/12 10:42:31;;;;;;;25.88;12.75;;;-1.30;99.90;;;;;;4835156;29;20050;-83
2022/12/12 10:45:10;;;;;;;26.85;13.13;;;-1.30;99.90;;;;;;4854297;29;20057;-80
2022/12/12 10:47:37;;;;;;;30.63;15.32;;;-1.20;99.90;;;;;;4844295;29;20089;-80
2022/12/12 10:50:10;;;;;;;26.42;13.38;;;-1.20;99.90;;;;;;4832975;29;20058;-82
2022/12/12 10:52:39;;;;;;;24.83;12.45;;;-1.20;99.90;;;;;;4841025;29;20061;-82
2022/12/12 10:55:23;;;;;;;23.30;12.40;;;-1.20;99.90;;;;;;4841122;29;20054;-81
2022/12/12 10:58:01;;;;;;;23.50;11.90;;;-1.20;99.90;;;;;;4842222;29;20054;-81
2022/12/12 11:00:39;;;;;;;21.20;11.85;;;-1.20;99.90;;;;;;4841713;29;20073;-80
2022/12/12 11:03:32;;;;;;;24.05;12.18;;;-1.20;99.90;;;;;;4837019;29;20302;-81
2022/12/12 11:06:04;;;;;;;21.50;11.13;;;-1.10;99.90;;;;;;4833256;29;20061;-80
2022/12/12 11:08:33;;;;;;;27.70;12.98;;;-1.20;99.90;;;;;;4850090;29;20061;-80
2022/12/12 11:11:16;;;;;;;20.70;11.85;;;-1.30;99.90;;;;;;4831511;29;20559;-81
2022/12/12 11:13:53;;;;;;;22.73;11.45;;;-1.30;99.90;;;;;;4831027;29;20050;-81
2022/12/12 11:16:29;;;;;;;17.85;10.13;;;-1.30;99.90;;;;;;4835240;29;20064;-80
2022/12/12 11:18:58;;;;;;;22.42;11.05;;;-1.40;99.90;;;;;;4848173;29;20083;-81
2022/12/12 11:21:26;;;;;;;19.17;9.88;;;-1.40;99.90;;;;;;4848107;29;20129;-82
2022/12/12 11:23:56;;;;;;;23.67;12.68;;;-1.40;99.90;;;;;;4849864;29;20072;-81
2022/12/12 11:26:23;;;;;;;;;;;-1.50;99.90;;;;;;4839957;29;20054;-81
2022/12/12 11:29:25;;;;;;;24.90;12.38;;;-1.50;99.90;;;;;;4842212;29;20039;-82
2022/12/12 11:31:53;;;;;;;19.80;11.35;;;-1.50;99.90;;;;;;4840153;29;20061;-82
2022/12/12 11:34:23;;;;;;;20.60;11.35;;;-1.60;99.90;;;;;;4836135;29;20463;-82
2022/12/12 11:36:50;;;;;;;24.40;12.07;;;-1.60;99.90;;;;;;4832812;29;20065;-82
2022/12/12 11:39:29;;;;;;;23.55;12.38;;;-1.60;99.90;;;;;;4829406;29;20061;-82
2022/12/12 11:42:16;;;;;;;24.65;11.90;;;-1.70;99.90;;;;;;4839697;29;20084;-82
2022/12/12 11:44:44;;;;;;;21.48;11.45;;;-1.70;99.90;;;;;;4828852;29;20046;-80
2022/12/12 11:47:19;;;;;;;26.48;12.10;;;-1.70;99.90;;;;;;4831887;29;20437;-81
2022/12/12 11:49:51;;;;;;;26.52;12.45;;;-1.60;99.90;;;;;;4834290;29;20062;-82
2022/12/12 11:52:25;;;;;;;23.25;11.35;;;-1.70;99.90;;;;;;4831661;29;20062;-81
2022/12/12 11:54:53;;;;;;;20.25;11.02;;;-1.60;99.90;;;;;;4829634;29;20082;-81
2022/12/12 11:57:51;;;;;;;20.15;9.98;;;-1.70;99.90;;;;;;4824837;29;20078;-81
2022/12/12 12:00:23;;;;;;;24.02;12.27;;;-1.60;99.90;;;;;;4825118;29;20054;-80
2022/12/12 12:03:07;;;;;;;24.65;13.38;;;-1.50;99.90;;;;;;4826280;29;20070;-81
2022/12/12 12:05:36;;;;;;;22.48;11.48;;;-1.60;99.90;;;;;;4828384;29;20054;-82
2022/12/12 12:08:48;;;;;;;22.08;11.93;;;-1.60;99.90;;;;;;4829892;29;20065;-81
2022/12/12 12:11:21;;;;;;;25.80;13.20;;;-1.70;99.90;;;;;;4839486;29;20062;-81
2022/12/12 12:14:00;;;;;;;25.85;12.55;;;-1.70;99.90;;;;;;4832845;29;20065;-81
2022/12/12 12:16:47;;;;;;;20.33;10.77;;;-1.70;99.90;;;;;;4831280;29;20524;-81
2022/12/12 12:19:44;;;;;;;26.23;13.35;;;-1.90;99.90;;;;;;4838627;29;20115;-82
2022/12/12 12:22:29;;;;;;;25.67;12.50;;;-1.90;99.90;;;;;;4838817;29;20208;-81
2022/12/12 12:25:20;;;;;;;26.40;11.77;;;-2.00;99.90;;;;;;4840640;29;20054;-81
2022/12/12 12:28:05;;;;;;;24.83;12.38;;;-2.10;99.90;;;;;;4841287;29;20054;-81
2022/12/12 12:31:06;;;;;;;23.30;11.93;;;-2.20;99.90;;;;;;4838405;29;20062;-82
2022/12/12 12:33:55;;;;;;;24.75;11.02;;;-2.10;99.90;;;;;;4839073;29;20059;-82
2022/12/12 12:36:29;;;;;;;23.45;11.98;;;-2.10;99.90;;;;;;4832725;29;20494;-82
2022/12/12 12:39:19;;;;;;;23.40;11.20;;;-2.10;99.90;;;;;;4835617;29;20050;-81
2022/12/12 12:42:10;;;;;;;26.15;12.68;;;-2.10;99.90;;;;;;4827462;29;20054;-82
2022/12/12 12:45:04;;;;;;;26.17;12.10;;;-2.20;99.90;;;;;;4841182;29;20045;-81
2022/12/12 12:47:37;;;;;;;20.85;10.63;;;-2.10;99.90;;;;;;4838378;29;20050;-82
2022/12/12 12:50:39;;;;;;;24.52;12.63;;;-2.10;99.90;;;;;;4840540;29;20065;-81
2022/12/12 12:53:14;;;;;;;20.58;11.85;;;-2.10;99.90;;;;;;4835555;29;20064;-81
2022/12/12 12:55:46;;;;;;;28.38;15.93;;;-1.90;99.90;;;;;;4838725;29;20060;-81
2022/12/12 12:58:24;;;;;;;24.08;12.57;;;-1.90;99.90;;;;;;4836905;29;20046;-81
2022/12/12 13:01:33;;;;;;;19.23;11.25;;;-2.00;99.90;;;;;;4837053;29;20531;-82
2022/12/12 13:04:09;;;;;;;23.63;11.02;;;-2.00;99.90;;;;;;4838401;29;20098;-81
2022/12/12 13:06:59;;;;;;;23.42;11.77;;;-2.20;99.90;;;;;;4841817;29;20053;-78
2022/12/12 13:10:04;;;;;;;21.42;11.50;;;-2.30;99.90;;;;;;4840092;29;20136;-81
2022/12/12 13:12:36;;;;;;;21.30;11.73;;;-2.30;99.90;;;;;;4844400;29;20427;-80
2022/12/12 13:15:16;;;;;;;24.58;12.57;;;-2.10;99.90;;;;;;4837993;29;20058;-81
2022/12/12 13:18:03;;;;;;;24.70;13.57;;;-2.00;99.90;;;;;;4835954;29;20529;-81
2022/12/12 13:20:48;;;;;;;29.00;13.95;;;-2.00;99.90;;;;;;4841565;29;20054;-84
2022/12/12 13:23:33;;;;;;;24.80;13.75;;;-1.90;99.90;;;;;;4834873;29;20050;-80
2022/12/12 13:26:05;;;;;;;31.92;16.00;;;-1.90;99.90;;;;;;4830339;29;20077;-80
2022/12/12 13:28:40;;;;;;;25.45;13.65;;;-1.80;99.90;;;;;;4844033;29;20052;-81
2022/12/12 13:31:34;;;;;;;30.50;13.02;;;-1.80;99.90;;;;;;4842735;29;20508;-81
2022/12/12 13:34:09;;;;;;;24.42;12.75;;;-2.00;99.90;;;;;;4837101;29;20061;-80
2022/12/12 13:36:40;;;;;;;22.65;12.23;;;-2.10;99.90;;;;;;4841173;29;20136;-80
2022/12/12 13:39:20;;;;;;;23.60;11.27;;;-2.10;99.90;;;;;;4836523;29;20060;-80
2022/12/12 13:41:54;;;;;;;23.05;12.68;;;-2.10;99.90;;;;;;4842325;29;20523;-82
2022/12/12 13:44:50;;;;;;;22.25;10.93;;;-2.30;99.90;;;;;;4836641;29;20053;-82
2022/12/12 13:47:21;;;;;;;26.00;12.70;;;-2.40;99.90;;;;;;4832300;29;20442;-82
2022/12/12 13:49:51;;;;;;;26.40;13.10;;;-2.40;99.90;;;;;;4844344;29;20439;-83
2022/12/12 13:52:31;;;;;;;23.35;12.90;;;-2.30;99.90;;;;;;4848402;29;20152;-84
2022/12/12 13:55:10;;;;;;;25.52;12.82;;;-2.40;99.90;;;;;;4839658;29;20064;-82
2022/12/12 13:58:01;;;;;;;25.38;12.85;;;-2.30;99.90;;;;;;4842234;29;20065;-81
2022/12/12 14:00:29;;;;;;;21.80;11.45;;;-2.00;99.90;;;;;;4847993;29;20113;-81
2022/12/12 14:02:57;;;;;;;23.85;13.10;;;-1.90;99.90;;;;;;4838104;29;20054;-80
2022/12/12 14:05:29;;;;;;;22.05;12.77;;;-1.80;99.90;;;;;;4844456;29;20435;-79
2022/12/12 14:08:05;;;;;;;21.92;13.18;;;-1.70;99.90;;;;;;4841609;29;20049;-80
2022/12/12 14:10:38;;;;;;;30.63;12.13;;;-1.70;99.90;;;;;;4840392;29;20059;-80
2022/12/12 14:13:49;;;;;;;21.42;12.15;;;-1.80;99.90;;;;;;4831697;29;20073;-79
2022/12/12 14:16:20;;;;;;;24.88;12.23;;;-1.80;99.90;;;;;;4835070;29;20050;-79
2022/12/12 14:18:50;;;;;;;21.85;12.52;;;-2.00;99.90;;;;;;4836041;29;20115;-80
2022/12/12 14:21:19;;;;;;;25.92;13.32;;;-2.00;99.90;;;;;;4841831;29;20051;-80
2022/12/12 14:23:51;;;;;;;25.40;13.73;;;-2.20;99.90;;;;;;4835556;29;20076;-80
2022/12/12 14:26:27;;;;;;;25.58;14.23;;;-2.20;99.90;;;;;;4835601;29;20049;-80
2022/12/12 14:29:15;;;;;;;29.02;14.27;;;-2.30;99.90;;;;;;4830703;29;20165;-80
2022/12/12 14:31:51;;;;;;;21.60;12.55;;;-2.20;99.90;;;;;;4832075;29;20099;-79
2022/12/12 14:34:34;;;;;;;25.38;13.00;;;-2.10;99.90;;;;;;4838069;29;20113;-79
2022/12/12 14:37:28;;;;;;;21.05;11.77;;;-2.10;99.90;;;;;;4835135;29;20523;-80
2022/12/12 14:40:17;;;;;;;26.77;13.10;;;-2.10;99.90;;;;;;4834822;29;20048;-80
2022/12/12 14:42:52;;;;;;;29.23;13.63;;;-2.00;99.90;;;;;;4836004;29;20133;-80
2022/12/12 14:45:50;;;;;;;25.73;14.27;;;-2.00;99.90;;;;;;4837566;29;20059;-80
2022/12/12 14:48:25;;;;;;;35.72;18.42;;;-2.00;99.90;;;;;;4837056;29;20050;-80
2022/12/12 14:51:07;;;;;;;25.77;14.02;;;-2.00;99.90;;;;;;4842920;29;20539;-79
2022/12/12 14:53:37;;;;;;;26.00;13.15;;;-2.00;99.90;;;;;;4831702;29;20137;-80
2022/12/12 14:56:36;;;;;;;30.33;15.55;;;-2.10;99.90;;;;;;4834558;29;20185;-80
2022/12/12 14:59:13;;;;;;;27.20;13.60;;;-2.10;99.90;;;;;;4846305;29;20137;-80
2022/12/12 15:01:52;;;;;;;26.95;13.77;;;-2.10;99.90;;;;;;4842574;29;20114;-81
2022/12/12 15:04:28;;;;;;;25.77;13.82;;;-2.30;99.90;;;;;;4847607;29;20057;-80
2022/12/12 15:06:57;;;;;;;27.88;13.93;;;-2.30;99.90;;;;;;4845173;29;20050;-80
2022/12/12 15:09:37;;;;;;;28.63;14.60;;;-2.40;99.90;;;;;;4844919;29;20068;-81
2022/12/12 15:12:10;;;;;;;;;;;-2.40;99.90;;;;;;4845481;29;20065;-80
2022/12/12 15:14:51;;;;;;;29.55;12.73;;;-2.50;99.90;;;;;;4843398;29;20267;-80
2022/12/12 15:17:40;;;;;;;29.10;15.30;;;-2.50;99.90;;;;;;4851645;29;20050;-81
2022/12/12 15:20:15;;;;;;;28.00;14.47;;;-2.50;99.90;;;;;;4851450;29;20050;-79
2022/12/12 15:22:57;;;;;;;29.08;14.70;;;-2.50;99.90;;;;;;4842540;29;20081;-81
2022/12/12 15:25:33;;;;;;;26.40;13.27;;;-2.50;99.90;;;;;;4840361;29;20046;-80
2022/12/12 15:28:00;;;;;;;31.27;15.52;;;-2.60;99.90;;;;;;4841331;29;20510;-80
2022/12/12 15:30:32;;;;;;;30.73;15.60;;;-2.50;99.90;;;;;;4840131;29;20519;-80
2022/12/12 15:33:00;;;;;;;36.08;19.05;;;-2.50;99.90;;;;;;4829622;29;20568;-80
2022/12/12 15:35:27;;;;;;;34.38;16.85;;;-2.50;99.90;;;;;;4839125;29;20056;-80
2022/12/12 15:37:58;;;;;;;31.48;14.52;;;-2.50;99.90;;;;;;4846105;29;20496;-80
2022/12/12 15:40:32;;;;;;;31.45;15.85;;;-2.50;99.90;;;;;;4838169;29;20050;-80
2022/12/12 15:43:06;;;;;;;31.58;16.77;;;-2.60;99.90;;;;;;4834705;29;20041;-80
2022/12/12 15:45:49;;;;;;;33.05;15.55;;;-2.60;99.90;;;;;;4838479;29;20054;-80
2022/12/12 15:48:17;;;;;;;27.45;14.27;;;-2.60;99.90;;;;;;4836857;29;20054;-80
2022/12/12 15:50:44;;;;;;;30.52;15.32;;;-2.70;99.90;;;;;;4836169;29;20065;-80
2022/12/12 15:53:20;;;;;;;32.13;15.98;;;-2.70;99.90;;;;;;4838069;29;20046;-80
2022/12/12 15:56:13;;;;;;;33.97;16.92;;;-2.60;99.90;;;;;;4829468;29;20133;-81
2022/12/12 15:58:43;;;;;;;31.77;15.70;;;-2.50;99.90;;;;;;4832533;29;20528;-81
2022/12/12 16:01:12;;;;;;;;;;;-2.50;99.90;;;;;;4837863;29;20531;-80
2022/12/12 16:04:20;;;;;;;32.78;17.10;;;-2.40;99.90;;;;;;4835200;29;19950;-81
2022/12/12 16:06:48;;;;;;;28.98;16.58;;;-2.40;99.90;;;;;;4840083;29;20054;-81
2022/12/12 16:09:25;;;;;;;35.22;17.98;;;-2.30;99.90;;;;;;4835268;29;20058;-81
2022/12/12 16:11:56;;;;;;;35.78;17.95;;;-2.30;99.90;;;;;;4842354;29;20240;-82
2022/12/12 16:14:26;;;;;;;31.95;16.75;;;-2.30;99.90;;;;;;4830419;29;20054;-81
2022/12/12 16:17:19;;;;;;;32.10;16.10;;;-2.20;99.90;;;;;;4825994;29;20050;-81
2022/12/12 16:20:02;;;;;;;36.97;17.30;;;-2.30;99.90;;;;;;4838439;29;20530;-81
2022/12/12 16:22:35;;;;;;;32.10;15.82;;;-2.30;99.90;;;;;;4829573;29;20054;-82
2022/12/12 16:25:22;;;;;;;36.38;18.73;;;-2.40;99.90;;;;;;4831440;29;20073;-83
2022/12/12 16:27:59;;;;;;;31.08;15.57;;;-2.40;99.90;;;;;;4847958;29;20046;-81
2022/12/12 16:30:27;;;;;;;36.35;17.95;;;-2.30;99.90;;;;;;4831890;29;20062;-81
2022/12/12 16:32:54;;;;;;;36.63;17.75;;;-2.40;99.90;;;;;;4829085;29;20074;-80
2022/12/12 16:35:23;;;;;;;38.65;17.88;;;-2.30;99.90;;;;;;4828417;29;20073;-81
2022/12/12 16:37:51;;;;;;;35.88;17.02;;;-2.30;99.90;;;;;;4825772;29;20487;-81
2022/12/12 16:40:24;;;;;;;32.58;16.85;;;-2.20;99.90;;;;;;4836516;29;20716;-80
2022/12/12 16:43:01;;;;;;;31.35;16.17;;;-2.20;99.90;;;;;;4840981;29;20517;-83
2022/12/12 16:45:36;;;;;;;30.90;16.73;;;-2.20;99.90;;;;;;4830386;29;20060;-80
2022/12/12 16:48:16;;;;;;;37.35;18.02;;;-2.20;99.90;;;;;;4832778;29;20047;-80
2022/12/12 16:50:44;;;;;;;37.10;18.17;;;-2.20;99.90;;;;;;4842500;29;20055;-83
2022/12/12 16:53:11;;;;;;;33.88;17.52;;;-2.10;99.90;;;;;;4832039;29;20408;-82
2022/12/12 16:55:45;;;;;;;30.83;15.85;;;-2.20;99.90;;;;;;4845176;29;20058;-81
2022/12/12 16:58:12;;;;;;;33.28;17.05;;;-2.20;99.90;;;;;;4839888;29;20060;-82
2022/12/12 17:00:39;;;;;;;33.80;17.02;;;-2.30;99.90;;;;;;4844454;29;20073;-79
2022/12/12 17:03:06;;;;;;;34.45;17.67;;;-2.40;99.90;;;;;;4852072;29;20061;-82
2022/12/12 17:05:34;;;;;;;32.33;16.35;;;-2.40;99.90;;;;;;4850593;29;20064;-82
2022/12/12 17:08:01;;;;;;;33.67;16.27;;;-2.40;99.90;;;;;;4850225;29;20074;-81
2022/12/12 17:10:30;;;;;;;35.03;17.70;;;-2.50;99.90;;;;;;4847732;29;20083;-81
2022/12/12 17:12:57;;;;;;;32.35;18.02;;;-2.50;99.90;;;;;;4845451;29;20081;-81
2022/12/12 17:15:27;;;;;;;39.65;19.20;;;-2.50;99.90;;;;;;4835419;29;20499;-82
2022/12/12 17:17:54;;;;;;;36.22;16.52;;;-2.60;99.90;;;;;;4838725;29;20055;-81
2022/12/12 17:20:21;;;;;;;32.92;17.45;;;-2.60;99.90;;;;;;4839227;29;20493;-81
2022/12/12 17:22:50;;;;;;;35.88;17.45;;;-2.50;99.90;;;;;;4835084;29;20500;-81
2022/12/12 17:25:18;;;;;;;32.30;16.53;;;-2.60;99.90;;;;;;4840927;29;20060;-82
2022/12/12 17:27:45;;;;;;;32.35;17.38;;;-2.50;99.90;;;;;;4839653;29;20057;-82
2022/12/12 17:30:12;;;;;;;33.60;16.33;;;-2.60;99.90;;;;;;4840843;29;20082;-82
2022/12/12 17:32:40;;;;;;;33.10;18.05;;;-2.60;99.90;;;;;;4834864;29;20132;-82
2022/12/12 17:35:21;;;;;;;38.63;19.08;;;-2.50;99.90;;;;;;4818801;29;20059;-82
2022/12/12 17:37:50;;;;;;;38.17;18.80;;;-2.50;99.90;;;;;;4834670;29;20123;-82
2022/12/12 17:40:17;;;;;;;37.78;17.73;;;-2.50;99.90;;;;;;4833800;29;20314;-82
2022/12/12 17:42:43;;;;;;;36.00;18.05;;;-2.50;99.90;;;;;;4842569;29;20065;-82
2022/12/12 17:45:10;;;;;;;36.22;18.65;;;-2.50;99.90;;;;;;4839991;29;20076;-81
2022/12/12 17:47:37;;;;;;;37.25;18.42;;;-2.50;99.90;;;;;;4840738;29;20084;-81
2022/12/12 17:50:04;;;;;;;32.38;16.50;;;-2.50;99.90;;;;;;4840969;29;20054;-82
2022/12/12 17:52:31;;;;;;;34.55;16.17;;;-2.50;99.90;;;;;;4835304;29;20058;-82
2022/12/12 17:54:57;;;;;;;35.22;17.23;;;-2.50;99.90;;;;;;4831438;29;20054;-82
2022/12/12 17:57:44;;;;;;;38.42;18.73;;;-2.60;99.90;;;;;;4837400;29;20110;-82
2022/12/12 18:00:11;;;;;;;34.83;18.35;;;-2.60;99.90;;;;;;4840165;29;20050;-82
2022/12/12 18:02:39;;;;;;;36.05;16.65;;;-2.60;99.90;;;;;;4828757;29;20565;-81
2022/12/12 18:05:08;;;;;;;31.10;16.77;;;-2.70;99.90;;;;;;4834397;29;20065;-82
2022/12/12 18:07:36;;;;;;;40.10;18.27;;;-2.80;99.90;;;;;;4843770;29;20162;-82
2022/12/12 18:10:03;;;;;;;35.53;16.40;;;-2.70;99.90;;;;;;4841485;29;20054;-82
2022/12/12 18:12:30;;;;;;;32.55;16.85;;;-2.70;99.90;;;;;;4838505;29;20105;-82
2022/12/12 18:14:57;;;;;;;34.15;16.85;;;-2.80;99.90;;;;;;4836867;29;20058;-81
2022/12/12 18:17:23;;;;;;;35.78;18.35;;;-2.80;99.90;;;;;;4834788;29;20064;-81
2022/12/12 18:19:50;;;;;;;33.65;17.65;;;-2.70;99.90;;;;;;4835723;29;20054;-82
2022/12/12 18:22:17;;;;;;;36.97;17.50;;;-2.70;99.90;;;;;;4841736;29;20105;-81
2022/12/12 18:24:44;;;;;;;41.38;20.00;;;-2.70;99.90;;;;;;4828535;29;20566;-81
2022/12/12 18:27:10;;;;;;;36.75;18.60;;;-2.70;99.90;;;;;;4842910;29;20104;-82
2022/12/12 18:29:37;;;;;;;33.90;17.73;;;-2.70;99.90;;;;;;4845913;29;20054;-80
2022/12/12 18:32:04;;;;;;;36.05;17.20;;;-2.60;99.90;;;;;;4840928;29;20576;-80
2022/12/12 18:34:31;;;;;;;31.63;17.17;;;-2.60;99.90;;;;;;4838161;29;20604;-81
2022/12/12 18:36:57;;;;;;;34.90;17.27;;;-2.60;99.90;;;;;;4837612;29;20088;-81
2022/12/12 18:39:24;;;;;;;39.55;18.05;;;-2.60;99.90;;;;;;4838719;29;20054;-81
2022/12/12 18:41:51;;;;;;;38.00;18.02;;;-2.70;99.90;;;;;;4837233;29;20046;-81
2022/12/12 18:44:18;;;;;;;35.75;17.33;;;-2.80;99.90;;;;;;4834491;29;20051;-81
2022/12/12 18:46:44;;;;;;;32.25;16.02;;;-2.80;99.90;;;;;;4830333;29;20050;-81
2022/12/12 18:49:14;;;;;;;35.38;17.75;;;-2.80;99.90;;;;;;4828172;29;20519;-82
2022/12/12 18:51:41;;;;;;;34.63;17.58;;;-2.80;99.90;;;;;;4845266;29;20063;-81
2022/12/12 18:54:11;;;;;;;31.92;17.02;;;-2.80;99.90;;;;;;4839901;29;20065;-82
2022/12/12 18:56:42;;;;;;;40.28;20.38;;;-2.70;99.90;;;;;;4841514;29;20098;-82
2022/12/12 18:59:10;;;;;;;32.80;17.17;;;-2.70;99.90;;;;;;4837783;29;20050;-82
2022/12/12 19:01:37;;;;;;;36.92;16.75;;;-2.60;99.90;;;;;;4840496;29;20080;-81
2022/12/12 19:04:05;;;;;;;36.03;17.30;;;-2.60;99.90;;;;;;4840102;29;20512;-82
2022/12/12 19:06:40;;;;;;;33.00;17.33;;;-2.60;99.90;;;;;;4844982;29;20073;-81
2022/12/12 19:09:13;;;;;;;38.70;17.17;;;-2.60;99.90;;;;;;4838881;29;20136;-82
2022/12/12 19:11:41;;;;;;;35.88;17.77;;;-2.60;99.90;;;;;;4835245;29;20054;-82
2022/12/12 19:14:10;;;;;;;36.90;20.02;;;-2.50;99.90;;;;;;4836019;29;20061;-82
2022/12/12 19:16:36;;;;;;;33.20;17.20;;;-2.70;99.90;;;;;;4833638;29;20501;-82
2022/12/12 19:19:05;;;;;;;36.60;17.48;;;-2.70;99.90;;;;;;4836255;29;20062;-82
2022/12/12 19:21:35;;;;;;;36.40;18.27;;;-2.70;99.90;;;;;;4841290;29;20052;-82
2022/12/12 19:24:02;;;;;;;39.22;18.08;;;-2.70;99.90;;;;;;4837741;29;20057;-82
2022/12/12 19:26:29;;;;;;;35.72;16.98;;;-2.70;99.90;;;;;;4836957;29;20050;-82